Portada
METAR-TAF:

METAR-TAF

Aeroports :

Padang, Indonèsia

latitud: 00-47-12S, longitud: 100-16-50E, altitud: 5 m

Observació

L'informe es va fer fa 39 minuts, a les 07:30 UTC
Vent 6 kt del Oest, variant entre Sud-Oest i Oest/Nord-Oest
Temperatura 31°C
Humitat 75%
Pressió 1006 hPa
Visibilitat 10 km o més
Núvols disperses a una alçada de 2000 ft

METAR: WIEE 080730Z 26006KT 230V290 9999 SCT020 31/26 Q1006 NOSIG

Hora: 15:09 (08:09 UTC)

Pronòstic

L'informe es va fer fa 3 hores i 9 minuts, a les 05:00 UTC
Pronòstic vàlid del 08 a les 06 UTC al 09 a les 06 UTC
Vent 5 kt del Oest/Sud-Oest
Visibilitat 10 km o més
Escasses núvols a una alçada de 2000 ft
Evolucionant progressivament
l' 08 a les 09 UTC al 08 a les 11 UTC
Vent 4 kt del Nord

TAF: WIEE 080500Z 0806/0906 25005KT 9999 FEW020 BECMG 0809/0811 01004KT

Observacions i pronòstics meteorològics de més de 4000 aeroports (METAR i TAF).

Les estacions disponibles són els punts grocs i vermells al mapa.

Posi el ratolí al punt desitjat per veure el nom de l'estació.

Feu clic per veure les observacions i els pronòstics meteorològics.

Per canviar el mapa: feu clic els botons verds amb una creu de color negre per apropar; al botó verd amb un guió per allunyar la imatge; o en les fletxes verdes per a mapes adjacents.


METAR-TAF: